createdAt,value
2016-06-28T00:00:54.729Z,1012.07
2016-06-28T00:01:54.757Z,1012.06
2016-06-28T00:02:54.785Z,1012.07
2016-06-28T00:04:54.830Z,1012.03
2016-06-28T00:05:54.859Z,1012.03
2016-06-28T00:06:54.880Z,1012.04
2016-06-28T00:07:54.910Z,1012.05
2016-06-28T00:08:54.932Z,1012.06
2016-06-28T00:09:54.955Z,1012.01
2016-06-28T00:10:54.986Z,1012.01
2016-06-28T00:11:55.005Z,1012
2016-06-28T00:12:55.035Z,1011.98
2016-06-28T00:13:55.062Z,1011.99
2016-06-28T00:14:55.080Z,1012.02
2016-06-28T00:15:55.118Z,1012.01
2016-06-28T00:16:55.132Z,1011.98
2016-06-28T00:17:55.159Z,1011.97
2016-06-28T00:18:55.182Z,1011.98
2016-06-28T00:20:55.235Z,1011.92
2016-06-28T00:21:55.261Z,1011.96
2016-06-28T00:22:55.289Z,1011.92
2016-06-28T00:23:55.306Z,1011.91
2016-06-28T00:24:55.335Z,1011.9
2016-06-28T00:25:55.358Z,1011.97
2016-06-28T00:26:55.394Z,1011.93
2016-06-28T00:27:55.410Z,1011.94
2016-06-28T00:28:55.443Z,1011.96
2016-06-28T00:29:55.460Z,1011.93
2016-06-28T00:30:55.496Z,1011.94
2016-06-28T00:31:55.514Z,1011.93
2016-06-28T00:32:55.556Z,1011.95
2016-06-28T00:33:55.562Z,1011.96
2016-06-28T00:35:55.617Z,1011.94
2016-06-28T00:36:55.641Z,1011.91
2016-06-28T00:37:55.665Z,1011.95
2016-06-28T00:38:55.691Z,1011.97
2016-06-28T00:39:55.719Z,1011.94
2016-06-28T00:40:55.738Z,1011.96
2016-06-28T00:41:55.764Z,1011.94
2016-06-28T00:42:55.795Z,1011.95
2016-06-28T00:43:55.820Z,1011.94
2016-06-28T00:44:55.846Z,1011.97
2016-06-28T00:45:55.868Z,1011.97
2016-06-28T00:46:55.895Z,1011.95
2016-06-28T00:47:55.917Z,1011.95
2016-06-28T00:48:55.942Z,1011.94
2016-06-28T00:49:55.971Z,1011.97
2016-06-28T00:50:55.994Z,1011.99
2016-06-28T00:51:56.021Z,1011.93
2016-06-28T00:52:56.045Z,1011.97
2016-06-28T00:53:56.098Z,1012
2016-06-28T00:54:56.093Z,1011.96
2016-06-28T00:55:56.120Z,1011.97
2016-06-28T00:56:56.151Z,1011.97
2016-06-28T00:57:56.221Z,1012
2016-06-28T00:58:56.196Z,1011.93
2016-06-28T00:59:56.225Z,1011.97
2016-06-28T01:00:56.247Z,1011.96
2016-06-28T01:01:56.274Z,1012
2016-06-28T01:02:56.357Z,1011.95
2016-06-28T01:03:56.322Z,1011.98
2016-06-28T01:04:56.349Z,1011.97
2016-06-28T01:05:56.369Z,1011.97
2016-06-28T01:07:56.422Z,1011.93
2016-06-28T01:08:56.451Z,1011.94
2016-06-28T01:09:56.480Z,1011.93
2016-06-28T01:10:56.498Z,1011.9
2016-06-28T01:11:56.524Z,1011.86
2016-06-28T01:12:56.552Z,1011.84
2016-06-28T01:13:56.580Z,1011.83
2016-06-28T01:14:56.603Z,1011.82
2016-06-28T01:15:56.624Z,1011.82
2016-06-28T01:16:56.651Z,1011.81
2016-06-28T01:17:56.680Z,1011.79
2016-06-28T01:18:56.700Z,1011.8
2016-06-28T01:19:56.727Z,1011.76
2016-06-28T01:20:56.756Z,1011.8
2016-06-28T01:21:56.777Z,1011.76
2016-06-28T01:23:56.831Z,1011.79
2016-06-28T01:24:56.856Z,1011.78
2016-06-28T01:25:56.879Z,1011.74
2016-06-28T01:26:56.906Z,1011.75
2016-06-28T01:27:56.929Z,1011.72
2016-06-28T01:28:56.955Z,1011.74
2016-06-28T01:29:56.979Z,1011.7
2016-06-28T01:30:57.006Z,1011.73
2016-06-28T01:31:57.034Z,1011.75
2016-06-28T01:32:57.059Z,1011.75
2016-06-28T01:33:57.083Z,1011.76
2016-06-28T01:34:57.109Z,1011.77
2016-06-28T01:35:57.130Z,1011.78
2016-06-28T01:36:57.164Z,1011.78
2016-06-28T01:37:57.186Z,1011.87
2016-06-28T01:39:57.231Z,1011.89
2016-06-28T01:40:57.271Z,1011.91
2016-06-28T01:41:57.284Z,1011.92
2016-06-28T01:42:57.313Z,1011.92
2016-06-28T01:43:57.339Z,1011.91
2016-06-28T01:44:57.361Z,1011.88
2016-06-28T01:45:57.385Z,1011.9
2016-06-28T01:46:57.414Z,1011.85
2016-06-28T01:47:57.439Z,1011.86
2016-06-28T01:48:57.459Z,1011.82
2016-06-28T01:49:57.493Z,1011.82
2016-06-28T01:50:57.514Z,1011.88
2016-06-28T01:51:57.538Z,1011.91
2016-06-28T01:52:57.565Z,1011.87
2016-06-28T01:53:57.586Z,1011.89
2016-06-28T01:55:57.639Z,1011.9
2016-06-28T01:56:57.667Z,1011.88
2016-06-28T01:57:57.690Z,1011.84
2016-06-28T01:58:57.714Z,1011.85
2016-06-28T01:59:57.743Z,1011.81
2016-06-28T02:00:57.764Z,1011.82
2016-06-28T02:01:57.841Z,1011.83
2016-06-28T02:02:57.870Z,1011.86
2016-06-28T02:03:57.837Z,1011.82
2016-06-28T02:04:57.899Z,1011.87
2016-06-28T02:05:57.895Z,1011.78
2016-06-28T02:06:57.920Z,1011.8
2016-06-28T02:07:57.946Z,1011.78
2016-06-28T02:08:57.972Z,1011.77
2016-06-28T02:10:58.023Z,1011.82
2016-06-28T02:11:58.049Z,1011.78
2016-06-28T02:12:58.071Z,1011.81
2016-06-28T02:13:58.100Z,1011.8
2016-06-28T02:14:58.123Z,1011.82
2016-06-28T02:15:58.147Z,1011.83
2016-06-28T02:16:58.173Z,1011.82
2016-06-28T02:17:58.211Z,1011.86
2016-06-28T02:18:58.223Z,1011.84
2016-06-28T02:19:58.249Z,1011.88
2016-06-28T02:20:58.275Z,1011.88
2016-06-28T02:21:58.299Z,1011.88
2016-06-28T02:22:58.322Z,1011.88
2016-06-28T02:23:58.350Z,1011.87
2016-06-28T02:24:58.379Z,1011.91
2016-06-28T02:25:58.396Z,1011.91
2016-06-28T02:26:58.423Z,1011.91
2016-06-28T02:27:58.448Z,1011.9
2016-06-28T02:28:58.473Z,1011.93
2016-06-28T02:29:58.498Z,1011.95
2016-06-28T02:30:58.525Z,1011.97
2016-06-28T02:31:58.554Z,1011.97
2016-06-28T02:32:58.575Z,1011.93
2016-06-28T02:33:58.618Z,1011.88
2016-06-28T02:34:58.627Z,1011.85
2016-06-28T02:35:58.651Z,1011.88
2016-06-28T02:36:58.675Z,1011.88
2016-06-28T02:37:58.699Z,1011.91
2016-06-28T02:38:58.730Z,1011.91
2016-06-28T02:39:58.749Z,1011.92
2016-06-28T02:40:58.779Z,1011.91
2016-06-28T02:42:58.824Z,1011.91
2016-06-28T02:43:58.856Z,1011.94
2016-06-28T02:44:58.877Z,1011.94
2016-06-28T02:45:58.906Z,1011.92
2016-06-28T02:46:58.928Z,1011.95
2016-06-28T02:47:58.959Z,1011.96
2016-06-28T02:48:58.978Z,1011.98
2016-06-28T02:49:59.007Z,1011.95
2016-06-28T02:50:59.024Z,1011.98
2016-06-28T02:51:59.055Z,1011.99
2016-06-28T02:52:59.076Z,1011.91
2016-06-28T02:53:59.107Z,1011.95
2016-06-28T02:54:59.130Z,1011.96
2016-06-28T02:55:59.158Z,1011.96
2016-06-28T02:56:59.186Z,1011.92
2016-06-28T02:58:59.235Z,1011.93
2016-06-28T02:59:59.254Z,1011.94
2016-06-28T03:00:59.282Z,1011.97
2016-06-28T03:01:59.308Z,1011.92
2016-06-28T03:02:59.330Z,1011.92
2016-06-28T03:03:59.357Z,1011.9
2016-06-28T03:04:59.382Z,1011.91
2016-06-28T03:05:59.410Z,1011.91
2016-06-28T03:06:59.437Z,1011.92
2016-06-28T03:07:59.456Z,1011.95
2016-06-28T03:08:59.484Z,1011.92
2016-06-28T03:09:59.507Z,1011.92
2016-06-28T03:10:59.534Z,1011.97
2016-06-28T03:11:59.558Z,1011.98
2016-06-28T03:12:59.586Z,1011.96
2016-06-28T03:14:59.635Z,1011.93
2016-06-28T03:15:59.661Z,1011.94
2016-06-28T03:16:59.684Z,1011.95
2016-06-28T03:17:59.715Z,1011.95
2016-06-28T03:18:59.739Z,1011.92
2016-06-28T03:19:59.762Z,1011.92
2016-06-28T03:20:59.786Z,1011.9
2016-06-28T03:21:59.810Z,1011.92
2016-06-28T03:22:59.838Z,1011.94
2016-06-28T03:23:59.864Z,1011.96
2016-06-28T03:24:59.889Z,1011.93
2016-06-28T03:25:59.915Z,1011.98
2016-06-28T03:26:59.936Z,1011.94
2016-06-28T03:27:59.969Z,1011.96
2016-06-28T03:28:59.992Z,1011.96
2016-06-28T03:31:00.041Z,1012.01
2016-06-28T03:32:00.065Z,1012.02
2016-06-28T03:33:00.091Z,1011.99
2016-06-28T03:34:00.112Z,1011.92
2016-06-28T03:35:00.142Z,1011.96
2016-06-28T03:36:00.164Z,1011.95
2016-06-28T03:37:00.194Z,1011.92
2016-06-28T03:38:00.219Z,1011.92
2016-06-28T03:39:00.256Z,1011.95
2016-06-28T03:40:00.266Z,1011.91
2016-06-28T03:41:00.290Z,1011.95
2016-06-28T03:42:00.314Z,1011.94
2016-06-28T03:43:00.345Z,1011.91
2016-06-28T03:44:00.366Z,1011.96
2016-06-28T03:46:00.420Z,1011.97
2016-06-28T03:47:00.442Z,1011.95
2016-06-28T03:48:00.471Z,1011.98
2016-06-28T03:49:00.498Z,1011.98
2016-06-28T03:50:00.527Z,1011.96
2016-06-28T03:51:00.549Z,1011.93
2016-06-28T03:52:00.568Z,1011.98
2016-06-28T03:53:00.598Z,1011.94
2016-06-28T03:54:00.626Z,1011.97
2016-06-28T03:55:00.647Z,1011.99
2016-06-28T03:56:00.674Z,1011.99
2016-06-28T03:57:00.698Z,1012.01
2016-06-28T03:58:00.724Z,1012
2016-06-28T03:59:00.749Z,1012.03
2016-06-28T04:00:00.773Z,1011.98
2016-06-28T04:01:00.801Z,1011.97
2016-06-28T04:02:00.822Z,1012.03
2016-06-28T04:03:00.848Z,1011.96
2016-06-28T04:04:00.925Z,1011.93
2016-06-28T04:05:00.896Z,1011.94
2016-06-28T04:06:00.926Z,1011.95
2016-06-28T04:07:00.951Z,1011.98
2016-06-28T04:08:00.974Z,1011.99
2016-06-28T04:09:01.002Z,1011.99
2016-06-28T04:10:01.028Z,1011.99
2016-06-28T04:11:01.051Z,1012.03
2016-06-28T04:12:01.079Z,1012.03
2016-06-28T04:13:01.101Z,1012.04
2016-06-28T04:14:01.131Z,1012
2016-06-28T04:15:01.157Z,1011.96
2016-06-28T04:16:01.179Z,1011.94
2016-06-28T04:18:01.231Z,1011.95
2016-06-28T04:19:01.251Z,1011.92
2016-06-28T04:20:01.285Z,1011.98
2016-06-28T04:21:01.308Z,1011.91
2016-06-28T04:22:01.330Z,1011.96
2016-06-28T04:23:01.359Z,1011.91
2016-06-28T04:24:01.394Z,1011.92
2016-06-28T04:25:01.414Z,1011.92
2016-06-28T04:26:01.432Z,1011.93
2016-06-28T04:27:01.455Z,1011.95
2016-06-28T04:28:01.491Z,1011.97
2016-06-28T04:29:01.508Z,1011.98
2016-06-28T04:30:01.535Z,1011.99
2016-06-28T04:31:01.563Z,1012.03
2016-06-28T04:32:01.586Z,1012.01
2016-06-28T04:34:01.645Z,1012.58
2016-06-28T04:35:01.664Z,1012.63
2016-06-28T04:36:01.696Z,1012.44
2016-06-28T04:37:01.718Z,1012.02
2016-06-28T04:38:01.743Z,1012.06
2016-06-28T04:39:01.780Z,1012.05
2016-06-28T04:40:01.801Z,1012.09
2016-06-28T04:41:01.828Z,1012.1
2016-06-28T04:42:01.854Z,1012.08
2016-06-28T04:43:01.877Z,1012.06
2016-06-28T04:44:01.907Z,1012.08
2016-06-28T04:45:01.927Z,1012.08
2016-06-28T04:46:01.955Z,1012.14
2016-06-28T04:47:01.993Z,1012.12
2016-06-28T04:48:02.032Z,1012.13
2016-06-28T04:50:02.070Z,1012.06
2016-06-28T04:51:02.094Z,1012.04
2016-06-28T04:52:02.118Z,1012.08
2016-06-28T04:53:02.137Z,1012.08
2016-06-28T04:54:02.169Z,1012.06
2016-06-28T04:55:02.194Z,1012.05
2016-06-28T04:56:02.223Z,1012.07
2016-06-28T04:57:02.253Z,1012.08
2016-06-28T04:58:02.278Z,1012.07
2016-06-28T04:59:02.303Z,1012.09
2016-06-28T05:00:02.327Z,1012.08
2016-06-28T05:01:02.357Z,1012.07
2016-06-28T05:02:02.385Z,1012.1
2016-06-28T05:03:02.413Z,1012.04
2016-06-28T05:04:02.439Z,1012.06
2016-06-28T05:06:02.495Z,1012.09
2016-06-28T05:07:02.514Z,1012.05
2016-06-28T05:08:02.543Z,1012.13
2016-06-28T05:09:02.571Z,1012.05
2016-06-28T05:10:02.594Z,1012.04
2016-06-28T05:11:02.639Z,1012.08
2016-06-28T05:12:02.648Z,1012.08
2016-06-28T05:13:02.680Z,1012
2016-06-28T05:14:02.698Z,1012.03
2016-06-28T05:15:02.727Z,1011.97
2016-06-28T05:16:02.753Z,1011.99
2016-06-28T05:17:02.779Z,1012.06
2016-06-28T05:18:02.809Z,1011.97
2016-06-28T05:19:02.833Z,1012.29
2016-06-28T05:21:02.893Z,1011.95
2016-06-28T05:22:02.910Z,1012
2016-06-28T05:23:02.936Z,1011.99
2016-06-28T05:24:02.965Z,1011.94
2016-06-28T05:25:02.990Z,1011.96
2016-06-28T05:26:03.018Z,1011.97
2016-06-28T05:27:03.045Z,1012.01
2016-06-28T05:28:03.073Z,1012.05
2016-06-28T05:29:03.099Z,1012
2016-06-28T05:30:03.126Z,1012.02
2016-06-28T05:31:03.153Z,1011.97
2016-06-28T05:32:03.179Z,1012.02
2016-06-28T05:33:03.206Z,1012
2016-06-28T05:34:03.233Z,1012.03
2016-06-28T05:35:03.269Z,1011.97
2016-06-28T05:36:03.292Z,1012.01
2016-06-28T05:37:03.321Z,1011.99
2016-06-28T05:38:03.346Z,1011.97
2016-06-28T05:39:03.366Z,1011.96
2016-06-28T05:40:03.394Z,1011.95
2016-06-28T05:41:03.425Z,1011.96
2016-06-28T05:42:03.452Z,1012
2016-06-28T05:43:03.476Z,1011.99
2016-06-28T05:44:03.502Z,1011.97
2016-06-28T05:45:03.528Z,1011.98
2016-06-28T05:46:03.551Z,1012.03
2016-06-28T05:47:03.583Z,1011.99
2016-06-28T05:48:03.608Z,1012
2016-06-28T05:49:03.635Z,1011.98
2016-06-28T05:50:03.660Z,1011.95
2016-06-28T05:51:03.690Z,1011.99
2016-06-28T05:53:03.747Z,1011.94
2016-06-28T05:54:03.767Z,1011.94
2016-06-28T05:55:03.791Z,1011.95
2016-06-28T05:56:03.824Z,1011.95
2016-06-28T05:57:03.850Z,1011.93
2016-06-28T05:58:03.874Z,1011.96
2016-06-28T05:59:03.903Z,1011.9
2016-06-28T06:00:03.925Z,1011.95
2016-06-28T06:01:03.952Z,1011.89
2016-06-28T06:02:04.029Z,1011.9
2016-06-28T06:03:04.010Z,1011.9
2016-06-28T06:04:04.030Z,1011.96
2016-06-28T06:05:04.056Z,1011.92
2016-06-28T06:06:04.103Z,1011.98
2016-06-28T06:07:04.113Z,1011.95
2016-06-28T06:09:04.162Z,1012.02
2016-06-28T06:10:04.192Z,1011.94
2016-06-28T06:11:04.212Z,1011.97
2016-06-28T06:12:04.240Z,1012.02
2016-06-28T06:13:04.268Z,1012.06
2016-06-28T06:14:04.293Z,1012.32
2016-06-28T06:15:04.317Z,1012.21
2016-06-28T06:16:04.349Z,1012.12
2016-06-28T06:17:04.375Z,1012.1
2016-06-28T06:18:04.403Z,1012.09
2016-06-28T06:19:04.428Z,1012.06
2016-06-28T06:20:04.459Z,1012.04
2016-06-28T06:21:04.481Z,1012.06
2016-06-28T06:22:04.515Z,1012.06
2016-06-28T06:23:04.542Z,1012.04
2016-06-28T06:25:04.606Z,1012.1
2016-06-28T06:26:04.618Z,1012.05
2016-06-28T06:27:04.642Z,1012.09
2016-06-28T06:28:04.671Z,1012.09
2016-06-28T06:29:04.699Z,1012.07
2016-06-28T06:30:04.720Z,1012.1
2016-06-28T06:31:04.754Z,1012.09
2016-06-28T06:32:04.783Z,1012.1
2016-06-28T06:33:04.805Z,1012.18
2016-06-28T06:34:04.834Z,1012.15
2016-06-28T06:35:04.856Z,1012.17
2016-06-28T06:36:04.889Z,1012.16
2016-06-28T06:37:04.914Z,1012.17
2016-06-28T06:38:04.952Z,1012.18
2016-06-28T06:39:04.970Z,1012.36
2016-06-28T06:41:05.031Z,1012.23
2016-06-28T06:42:05.051Z,1012.21
2016-06-28T06:43:05.077Z,1012.23
2016-06-28T06:44:05.114Z,1012.24
2016-06-28T06:45:05.135Z,1012.19
2016-06-28T06:46:05.161Z,1012.24
2016-06-28T06:47:05.190Z,1012.24
2016-06-28T06:48:05.220Z,1012.28
2016-06-28T06:49:05.240Z,1012.22
2016-06-28T06:50:05.272Z,1012.24
2016-06-28T06:51:05.302Z,1012.27
2016-06-28T06:52:05.322Z,1012.26
2016-06-28T06:53:05.350Z,1012.25
2016-06-28T06:54:05.381Z,1012.21
2016-06-28T06:56:05.435Z,1012.26
2016-06-28T06:57:05.465Z,1012.28
2016-06-28T06:58:05.491Z,1012.27
2016-06-28T06:59:05.517Z,1012.25
2016-06-28T07:00:05.553Z,1012.27
2016-06-28T07:01:05.574Z,1012.41
2016-06-28T07:02:05.596Z,1012.26
2016-06-28T07:03:05.624Z,1012.27
2016-06-28T07:04:05.657Z,1012.26
2016-06-28T07:05:05.680Z,1012.23
2016-06-28T07:06:05.709Z,1012.29
2016-06-28T07:07:05.737Z,1012.29
2016-06-28T07:08:05.761Z,1012.39
2016-06-28T07:09:05.792Z,1012.31
2016-06-28T07:10:05.822Z,1013.42
2016-06-28T07:11:05.848Z,1013.45
2016-06-28T07:12:05.882Z,1013.46
2016-06-28T07:13:05.901Z,1012.62
2016-06-28T07:14:05.932Z,1013.04
2016-06-28T07:15:05.956Z,1013.5
2016-06-28T07:16:05.990Z,1013.45
2016-06-28T07:17:06.014Z,1012.63
2016-06-28T07:18:06.047Z,1012.39
2016-06-28T07:19:06.082Z,1012.43
2016-06-28T07:20:06.110Z,1012.44
2016-06-28T07:21:06.131Z,1012.34
2016-06-28T07:22:06.164Z,1012.41
2016-06-28T07:23:06.204Z,1012.38
2016-06-28T07:24:06.220Z,1012.34
2016-06-28T07:25:06.255Z,1012.4
2016-06-28T07:26:06.277Z,1012.33
2016-06-28T07:28:06.342Z,1012.33
2016-06-28T07:29:06.367Z,1012.37
2016-06-28T07:30:06.395Z,1012.37
2016-06-28T07:31:06.427Z,1012.44
2016-06-28T07:32:06.455Z,1012.44
2016-06-28T07:33:06.483Z,1012.43
2016-06-28T07:34:06.511Z,1012.45
2016-06-28T07:35:06.543Z,1012.42
2016-06-28T07:36:06.585Z,1012.45
2016-06-28T07:37:06.593Z,1012.45
2016-06-28T07:38:06.622Z,1012.42
2016-06-28T07:39:06.658Z,1012.39
2016-06-28T07:40:06.681Z,1012.42
2016-06-28T07:41:06.707Z,1012.41
2016-06-28T07:42:06.735Z,1012.45
2016-06-28T07:44:06.796Z,1012.52
2016-06-28T07:45:06.818Z,1012.48
2016-06-28T07:46:06.850Z,1013.41
2016-06-28T07:47:06.874Z,1013.58
2016-06-28T07:48:06.902Z,1012.92
2016-06-28T07:49:06.929Z,1013.47
2016-06-28T07:50:06.964Z,1013.93
2016-06-28T07:51:06.988Z,1012.85
2016-06-28T07:52:07.013Z,1013.86
2016-06-28T07:53:07.042Z,1012.88
2016-06-28T07:54:07.068Z,1012.91
2016-06-28T07:55:07.114Z,1012.92
2016-06-28T07:56:07.123Z,1012.86
2016-06-28T07:57:07.155Z,1012.76
2016-06-28T07:58:07.187Z,1013.18
2016-06-28T08:00:07.240Z,1012.95
2016-06-28T08:01:07.270Z,1012.88
2016-06-28T08:02:07.302Z,1012.9
2016-06-28T08:03:07.342Z,1012.87
2016-06-28T08:04:07.359Z,1012.89
2016-06-28T08:05:07.390Z,1012.91
2016-06-28T08:06:07.413Z,1012.91
2016-06-28T08:07:07.442Z,1013.01
2016-06-28T08:08:07.471Z,1013.04
2016-06-28T08:09:07.507Z,1012.93
2016-06-28T08:10:07.526Z,1012.95
2016-06-28T08:11:07.566Z,1013.27
2016-06-28T08:12:07.606Z,1013.35
2016-06-28T08:13:07.614Z,1013.48
2016-06-28T08:14:07.640Z,1013.42
2016-06-28T08:16:07.698Z,1013.18
2016-06-28T08:17:07.727Z,1013.42
2016-06-28T08:18:07.755Z,1013.53
2016-06-28T08:19:07.792Z,1013.22
2016-06-28T08:20:07.815Z,1013.14
2016-06-28T08:21:07.881Z,1013.17
2016-06-28T08:22:07.872Z,1013.63
2016-06-28T08:23:07.903Z,1013.16
2016-06-28T08:24:07.932Z,1013.25
2016-06-28T08:25:07.967Z,1013.22
2016-06-28T08:26:07.990Z,1013.17
2016-06-28T08:27:08.027Z,1013.13
2016-06-28T08:28:08.055Z,1013.28
2016-06-28T08:29:08.083Z,1013.23
2016-06-28T08:31:08.142Z,1013.18
2016-06-28T08:32:08.172Z,1013.35
2016-06-28T08:33:08.200Z,1013.21
2016-06-28T08:34:08.233Z,1013.11
2016-06-28T08:35:08.264Z,1013.12
2016-06-28T08:36:08.287Z,1013.16
2016-06-28T08:37:08.329Z,1013.19
2016-06-28T08:38:08.354Z,1013.22
2016-06-28T08:39:08.381Z,1013.14
2016-06-28T08:40:08.406Z,1013.14
2016-06-28T08:41:08.440Z,1013.06
2016-06-28T08:42:08.471Z,1013.38
2016-06-28T08:43:08.494Z,1013.5
2016-06-28T08:44:08.522Z,1013.28
2016-06-28T08:45:08.550Z,1013.23
2016-06-28T08:46:08.591Z,1013.17
2016-06-28T08:47:08.609Z,1013.59
2016-06-28T08:48:08.635Z,1013.38
2016-06-28T08:49:08.663Z,1013.59
2016-06-28T08:50:08.696Z,1013.62
2016-06-28T08:51:08.723Z,1013.46
2016-06-28T08:52:08.757Z,1013.74
2016-06-28T08:53:08.782Z,1013.66
2016-06-28T08:54:08.818Z,1013.62
2016-06-28T08:55:08.843Z,1013.31
2016-06-28T08:56:08.880Z,1013.56
2016-06-28T08:57:08.906Z,1013.62
2016-06-28T08:58:08.931Z,1013.52
2016-06-28T08:59:08.965Z,1013.52
2016-06-28T09:00:08.990Z,1013.58
2016-06-28T09:01:09.024Z,1013.53
2016-06-28T09:03:09.086Z,1013.49
2016-06-28T09:04:09.114Z,1013.34
2016-06-28T09:05:09.146Z,1013.42
2016-06-28T09:06:09.176Z,1013.41
2016-06-28T09:07:09.219Z,1013.4
2016-06-28T09:08:09.239Z,1013.34
2016-06-28T09:09:09.270Z,1013.44
2016-06-28T09:10:09.302Z,1013.45
2016-06-28T09:11:09.329Z,1013.4
2016-06-28T09:12:09.363Z,1013.3
2016-06-28T09:13:09.390Z,1013.4
2016-06-28T09:14:09.424Z,1013.4
2016-06-28T09:15:09.454Z,1013.32
2016-06-28T09:16:09.485Z,1013.38
2016-06-28T09:17:09.520Z,1013.41
2016-06-28T09:19:09.584Z,1013.42
2016-06-28T09:20:09.609Z,1013.44
2016-06-28T09:21:09.638Z,1013.43
2016-06-28T09:22:09.668Z,1013.39
2016-06-28T09:23:09.702Z,1013.34
2016-06-28T09:24:09.728Z,1013.34
2016-06-28T09:25:09.759Z,1013.36
2016-06-28T09:26:09.792Z,1013.48
2016-06-28T09:27:09.820Z,1013.42
2016-06-28T09:28:09.849Z,1013.44
2016-06-28T09:29:09.879Z,1013.39
2016-06-28T09:30:09.910Z,1013.41
2016-06-28T09:31:09.943Z,1013.44
2016-06-28T09:32:09.972Z,1013.46
2016-06-28T09:33:09.998Z,1013.46
2016-06-28T09:35:10.061Z,1013.42
2016-06-28T09:36:10.091Z,1013.42
2016-06-28T09:37:10.123Z,1013.41
2016-06-28T09:38:10.154Z,1013.43
2016-06-28T09:39:10.180Z,1013.4
2016-06-28T09:40:10.217Z,1013.34
2016-06-28T09:41:10.244Z,1013.31
2016-06-28T09:42:10.272Z,1013.31
2016-06-28T09:43:10.305Z,1013.26
2016-06-28T09:44:10.331Z,1013.21
2016-06-28T09:45:10.363Z,1013.27
2016-06-28T09:46:10.395Z,1013.3
2016-06-28T09:47:10.425Z,1013.23
2016-06-28T09:48:10.461Z,1013.24
2016-06-28T09:49:10.487Z,1013.22
2016-06-28T09:51:10.549Z,1013.25
2016-06-28T09:52:10.581Z,1013.23
2016-06-28T09:53:10.611Z,1013.25
2016-06-28T09:54:10.637Z,1013.28
2016-06-28T09:55:10.669Z,1013.3
2016-06-28T09:56:10.701Z,1013.25
2016-06-28T09:57:10.725Z,1013.27
2016-06-28T09:58:10.763Z,1013.26
2016-06-28T09:59:10.790Z,1013.27
2016-06-28T10:00:10.821Z,1013.28
2016-06-28T10:01:10.847Z,1013.32
2016-06-28T10:02:10.879Z,1013.25
2016-06-28T10:03:10.911Z,1013.3
2016-06-28T10:04:10.941Z,1013.26
2016-06-28T10:06:11.002Z,1013.26
2016-06-28T10:07:11.036Z,1013.22
2016-06-28T10:08:11.061Z,1013.26
2016-06-28T10:09:11.093Z,1013.23
2016-06-28T10:10:11.124Z,1013.26
2016-06-28T10:11:11.165Z,1013.27
2016-06-28T10:12:11.200Z,1013.24
2016-06-28T10:13:11.215Z,1013.25
2016-06-28T10:14:11.245Z,1013.24
2016-06-28T10:15:11.275Z,1013.23
2016-06-28T10:16:11.306Z,1013.2
2016-06-28T10:17:11.338Z,1013.15
2016-06-28T10:18:11.364Z,1013.18
2016-06-28T10:19:11.394Z,1013.19
2016-06-28T10:20:11.423Z,1013.22
2016-06-28T10:21:11.456Z,1013.21
2016-06-28T10:22:11.487Z,1013.2
2016-06-28T10:23:11.515Z,1013.21
2016-06-28T10:24:11.548Z,1013.23
2016-06-28T10:25:11.583Z,1013.21
2016-06-28T10:26:11.611Z,1013.26
2016-06-28T10:27:11.639Z,1013.27
2016-06-28T10:28:11.666Z,1013.27
2016-06-28T10:29:11.697Z,1013.23
2016-06-28T10:30:11.725Z,1013.21
2016-06-28T10:31:11.757Z,1013.22
2016-06-28T10:32:11.784Z,1013.22
2016-06-28T10:33:11.812Z,1013.15
2016-06-28T10:34:11.842Z,1013.16
2016-06-28T10:35:11.874Z,1013.1
2016-06-28T10:36:11.904Z,1013.13
2016-06-28T10:38:11.970Z,1013.12
2016-06-28T10:39:11.997Z,1013.09
2016-06-28T10:40:12.026Z,1013.13
2016-06-28T10:41:12.056Z,1013.11
2016-06-28T10:42:12.088Z,1013.06
2016-06-28T10:43:12.118Z,1013.06
2016-06-28T10:44:12.147Z,1013.1
2016-06-28T10:45:12.171Z,1013.11
2016-06-28T10:46:12.218Z,1013.11
2016-06-28T10:47:12.246Z,1013.13
2016-06-28T10:48:12.261Z,1013.06
2016-06-28T10:49:12.291Z,1013.08
2016-06-28T10:50:12.327Z,1013.06
2016-06-28T10:51:12.352Z,1013.05
2016-06-28T10:52:12.380Z,1013.12
2016-06-28T10:54:12.443Z,1013.07
2016-06-28T10:55:12.475Z,1013.08
2016-06-28T10:56:12.498Z,1013.04
2016-06-28T10:57:12.533Z,1013.06
2016-06-28T10:58:12.565Z,1013.07
2016-06-28T10:59:12.590Z,1013.05
2016-06-28T11:00:12.620Z,1013.03
2016-06-28T11:01:12.651Z,1013.07
2016-06-28T11:02:12.682Z,1013.09
2016-06-28T11:03:12.709Z,1013.07
2016-06-28T11:04:12.740Z,1013.06
2016-06-28T11:05:12.771Z,1013.03
2016-06-28T11:06:12.814Z,1013.08
2016-06-28T11:07:12.830Z,1013.14
2016-06-28T11:08:12.858Z,1013.12
2016-06-28T11:10:12.910Z,1013.05
2016-06-28T11:11:12.943Z,1013.02
2016-06-28T11:12:12.975Z,1013.02
2016-06-28T11:13:13.003Z,1013
2016-06-28T11:14:13.035Z,1013
2016-06-28T11:15:13.058Z,1012.98
2016-06-28T11:16:13.090Z,1012.92
2016-06-28T11:17:13.118Z,1012.96
2016-06-28T11:18:13.149Z,1012.88
2016-06-28T11:19:13.182Z,1012.95
2016-06-28T11:20:13.208Z,1013
2016-06-28T11:21:13.233Z,1012.96
2016-06-28T11:22:13.266Z,1012.97
2016-06-28T11:23:13.294Z,1012.95
2016-06-28T11:24:13.322Z,1012.92
2016-06-28T11:26:13.378Z,1012.87
2016-06-28T11:27:13.414Z,1012.86
2016-06-28T11:28:13.438Z,1012.89
2016-06-28T11:29:13.466Z,1012.86
2016-06-28T11:30:13.498Z,1012.82
2016-06-28T11:31:13.533Z,1012.81
2016-06-28T11:32:13.555Z,1012.83
2016-06-28T11:33:13.583Z,1012.85
2016-06-28T11:34:13.628Z,1012.77
2016-06-28T11:35:13.646Z,1012.77
2016-06-28T11:36:13.670Z,1012.76
2016-06-28T11:37:13.700Z,1012.72
2016-06-28T11:38:13.725Z,1012.7
2016-06-28T11:39:13.754Z,1012.77
2016-06-28T11:41:13.813Z,1012.7
2016-06-28T11:42:13.842Z,1012.72
2016-06-28T11:43:13.870Z,1012.75
2016-06-28T11:44:13.898Z,1012.71
2016-06-28T11:45:13.930Z,1012.73
2016-06-28T11:46:13.957Z,1012.71
2016-06-28T11:47:13.988Z,1012.71
2016-06-28T11:48:14.020Z,1012.77
2016-06-28T11:49:14.045Z,1012.73
2016-06-28T11:50:14.077Z,1012.73
2016-06-28T11:51:14.112Z,1012.75
2016-06-28T11:52:14.146Z,1012.68
2016-06-28T11:53:14.163Z,1012.68
2016-06-28T11:54:14.190Z,1012.68
2016-06-28T11:55:14.222Z,1012.65
2016-06-28T11:56:14.245Z,1012.62
2016-06-28T11:57:14.272Z,1012.58
2016-06-28T11:58:14.304Z,1012.59
2016-06-28T11:59:14.334Z,1012.6
2016-06-28T12:00:14.358Z,1012.61
2016-06-28T12:01:14.389Z,1012.6
2016-06-28T12:02:14.414Z,1012.6
2016-06-28T12:03:14.446Z,1012.56
2016-06-28T12:04:14.489Z,1012.57
2016-06-28T12:05:14.508Z,1012.55
2016-06-28T12:06:14.528Z,1012.56
2016-06-28T12:07:14.558Z,1012.56
2016-06-28T12:08:14.587Z,1012.53
2016-06-28T12:09:14.616Z,1012.49
2016-06-28T12:10:14.654Z,1012.47
2016-06-28T12:11:14.678Z,1012.56
2016-06-28T12:13:14.736Z,1012.55
2016-06-28T12:14:14.769Z,1012.54
2016-06-28T12:15:14.795Z,1012.55
2016-06-28T12:16:14.822Z,1012.46
2016-06-28T12:17:14.853Z,1012.5
2016-06-28T12:18:14.883Z,1012.46
2016-06-28T12:19:14.917Z,1012.52
2016-06-28T12:20:14.937Z,1012.46
2016-06-28T12:21:14.966Z,1012.46
2016-06-28T12:22:14.995Z,1012.45
2016-06-28T12:23:15.021Z,1012.44
2016-06-28T12:24:15.050Z,1012.44
2016-06-28T12:25:15.084Z,1012.42
2016-06-28T12:26:15.113Z,1012.41
2016-06-28T12:27:15.148Z,1012.41
2016-06-28T12:29:15.198Z,1012.39
2016-06-28T12:30:15.224Z,1012.42
2016-06-28T12:31:15.254Z,1012.34
2016-06-28T12:32:15.282Z,1012.35
2016-06-28T12:33:15.311Z,1012.37
2016-06-28T12:34:15.343Z,1012.34
2016-06-28T12:35:15.369Z,1012.37
2016-06-28T12:36:15.395Z,1012.38
2016-06-28T12:37:15.421Z,1012.32
2016-06-28T12:38:15.461Z,1012.31
2016-06-28T12:39:15.486Z,1012.3
2016-06-28T12:40:15.515Z,1012.3
2016-06-28T12:41:15.549Z,1012.29
2016-06-28T12:42:15.574Z,1012.24
2016-06-28T12:43:15.615Z,1012.21
2016-06-28T12:45:15.665Z,1012.15
2016-06-28T12:46:15.692Z,1012.2
2016-06-28T12:47:15.726Z,1012.27
2016-06-28T12:48:15.745Z,1012.21
2016-06-28T12:49:15.792Z,1012.15
2016-06-28T12:50:15.800Z,1012.2